N714DF BIHN-EKVG
Flight info
| Callsign | N714DF |
|---|---|
| Flight time | 1h 51m |
| Altitude | 5000 |
| Route | ELTEK DCT H6313 DCT 6310N DCT MAGNI |
| Aircraft | PA24/L-SDGRY/S |
Departure
| Time | 2026-05-09 00:59 |
|---|---|
| Airport | Hornafjörður Airport (BIHN) |
Arrival
| Time | 2026-05-09 02:51 |
|---|---|
| Airport | Vágar Airport (EKVG) |
| Time | Latitude | Longitude | Altitude | Speed | Heading |
|---|---|---|---|---|---|
| 2026-05-09 00:42 | 64.30237 | -15.22797 | 20 ft | 0 kts | 260° |
| 2026-05-09 00:48 | 64.30233 | -15.22843 | 22 ft | 0 kts | 254° |
| 2026-05-09 00:54 | 64.30227 | -15.22857 | 21 ft | 7 kts | 214° |
| 2026-05-09 00:54 | 64.30199 | -15.23009 | 17 ft | 10 kts | 257° |
| 2026-05-09 00:54 | 64.30194 | -15.23041 | 16 ft | 4 kts | 226° |
| 2026-05-09 00:54 | 64.30107 | -15.23014 | 14 ft | 22 kts | 168° |
| 2026-05-09 00:55 | 64.29920 | -15.22908 | 10 ft | 29 kts | 166° |
| 2026-05-09 00:55 | 64.29745 | -15.22809 | 11 ft | 22 kts | 165° |
| 2026-05-09 00:55 | 64.29614 | -15.22741 | 12 ft | 17 kts | 169° |
| 2026-05-09 00:55 | 64.29518 | -15.22697 | 13 ft | 11 kts | 168° |
| 2026-05-09 00:56 | 64.29444 | -15.22671 | 11 ft | 12 kts | 169° |
| 2026-05-09 00:56 | 64.29359 | -15.22631 | 10 ft | 13 kts | 168° |
| 2026-05-09 00:56 | 64.29197 | -15.22535 | 9 ft | 31 kts | 168° |
| 2026-05-09 00:56 | 64.29087 | -15.22491 | 8 ft | 3 kts | 93° |
| 2026-05-09 00:57 | 64.29109 | -15.22497 | 8 ft | 0 kts | 342° |
| 2026-05-09 00:57 | 64.29110 | -15.22498 | 8 ft | 0 kts | 342° |
| 2026-05-09 00:58 | 64.29241 | -15.22564 | 9 ft | 46 kts | 347° |
| 2026-05-09 00:58 | 64.29658 | -15.22808 | 49 ft | 70 kts | 344° |
| 2026-05-09 00:58 | 64.30154 | -15.23145 | 172 ft | 77 kts | 345° |
| 2026-05-09 00:58 | 64.30646 | -15.23302 | 393 ft | 74 kts | 4° |
| 2026-05-09 00:59 | 64.31127 | -15.22833 | 579 ft | 74 kts | 38° |
| 2026-05-09 00:59 | 64.31385 | -15.21786 | 689 ft | 82 kts | 72° |
| 2026-05-09 00:59 | 64.31317 | -15.20521 | 879 ft | 81 kts | 111° |
| 2026-05-09 00:59 | 64.30916 | -15.19519 | 1041 ft | 87 kts | 140° |
| 2026-05-09 01:00 | 64.30438 | -15.18738 | 1228 ft | 87 kts | 141° |
| 2026-05-09 01:00 | 64.29950 | -15.17922 | 1438 ft | 84 kts | 142° |
| 2026-05-09 01:00 | 64.29468 | -15.17087 | 1579 ft | 89 kts | 143° |
| 2026-05-09 01:00 | 64.28948 | -15.16386 | 1805 ft | 87 kts | 154° |
| 2026-05-09 01:01 | 64.28369 | -15.15935 | 1992 ft | 87 kts | 169° |
| 2026-05-09 01:01 | 64.27751 | -15.15820 | 2132 ft | 92 kts | 184° |
| 2026-05-09 01:01 | 64.27146 | -15.15997 | 2344 ft | 87 kts | 193° |
| 2026-05-09 01:01 | 64.26526 | -15.16312 | 2486 ft | 90 kts | 197° |
| 2026-05-09 01:02 | 64.25923 | -15.16601 | 2657 ft | 92 kts | 193° |
| 2026-05-09 01:02 | 64.25295 | -15.16730 | 2842 ft | 90 kts | 183° |
| 2026-05-09 01:02 | 64.24655 | -15.16555 | 2971 ft | 97 kts | 169° |
| 2026-05-09 01:02 | 64.24037 | -15.16009 | 3163 ft | 95 kts | 152° |
| 2026-05-09 01:03 | 64.23484 | -15.15089 | 3320 ft | 99 kts | 136° |
| 2026-05-09 01:03 | 64.23043 | -15.13897 | 3501 ft | 100 kts | 121° |
| 2026-05-09 01:03 | 64.22703 | -15.12504 | 3683 ft | 99 kts | 110° |
| 2026-05-09 01:03 | 64.22443 | -15.11040 | 3832 ft | 100 kts | 104° |
| 2026-05-09 01:04 | 64.22213 | -15.09545 | 4017 ft | 99 kts | 103° |
| 2026-05-09 01:04 | 64.21963 | -15.08052 | 4156 ft | 101 kts | 107° |
| 2026-05-09 01:04 | 64.21653 | -15.06612 | 4315 ft | 102 kts | 114° |
| 2026-05-09 01:04 | 64.21254 | -15.05257 | 4468 ft | 103 kts | 124° |
| 2026-05-09 01:05 | 64.20757 | -15.04058 | 4619 ft | 105 kts | 135° |
| 2026-05-09 01:05 | 64.20190 | -15.03037 | 4774 ft | 102 kts | 145° |
| 2026-05-09 01:05 | 64.18969 | -15.01529 | 5081 ft | 99 kts | 160° |
| 2026-05-09 01:06 | 64.18313 | -15.00969 | 5163 ft | 107 kts | 164° |
| 2026-05-09 01:06 | 64.17553 | -15.00418 | 5231 ft | 112 kts | 166° |
| 2026-05-09 01:06 | 64.16733 | -14.99812 | 4982 ft | 136 kts | 163° |
| 2026-05-09 01:06 | 64.15884 | -14.99004 | 5058 ft | 139 kts | 157° |
| 2026-05-09 01:07 | 64.15021 | -14.97839 | 5032 ft | 143 kts | 147° |
| 2026-05-09 01:07 | 64.14246 | -14.96364 | 4993 ft | 149 kts | 137° |
| 2026-05-09 01:07 | 64.13543 | -14.94612 | 4987 ft | 149 kts | 130° |
| 2026-05-09 01:07 | 64.12918 | -14.92751 | 4995 ft | 149 kts | 127° |
| 2026-05-09 01:08 | 64.12302 | -14.90826 | 4997 ft | 150 kts | 127° |
| 2026-05-09 01:08 | 64.11658 | -14.88943 | 5003 ft | 150 kts | 130° |
| 2026-05-09 01:08 | 64.10977 | -14.87134 | 5003 ft | 150 kts | 131° |
| 2026-05-09 01:08 | 64.10292 | -14.85333 | 5003 ft | 150 kts | 131° |
| 2026-05-09 01:09 | 64.09620 | -14.83498 | 5006 ft | 150 kts | 129° |
| 2026-05-09 01:09 | 64.08974 | -14.81616 | 4999 ft | 150 kts | 127° |
| 2026-05-09 01:09 | 64.08357 | -14.79687 | 5006 ft | 150 kts | 125° |
| 2026-05-09 01:09 | 64.07766 | -14.77716 | 4999 ft | 150 kts | 124° |
| 2026-05-09 01:10 | 64.07193 | -14.75715 | 5006 ft | 151 kts | 123° |
| 2026-05-09 01:10 | 64.06628 | -14.73702 | 5006 ft | 150 kts | 122° |
| 2026-05-09 01:10 | 64.06061 | -14.71691 | 5006 ft | 151 kts | 123° |
| 2026-05-09 01:10 | 64.05485 | -14.69699 | 5005 ft | 150 kts | 124° |
| 2026-05-09 01:11 | 64.04893 | -14.67735 | 5005 ft | 150 kts | 125° |
| 2026-05-09 01:11 | 64.04285 | -14.65806 | 5005 ft | 150 kts | 127° |
| 2026-05-09 01:11 | 64.03670 | -14.63926 | 5004 ft | 150 kts | 127° |
| 2026-05-09 01:11 | 64.03041 | -14.62041 | 5005 ft | 149 kts | 128° |
| 2026-05-09 01:12 | 64.02411 | -14.60158 | 5005 ft | 149 kts | 128° |
| 2026-05-09 01:12 | 64.01785 | -14.58274 | 5005 ft | 149 kts | 127° |
| 2026-05-09 01:12 | 64.01164 | -14.56382 | 5003 ft | 149 kts | 127° |
| 2026-05-09 01:12 | 64.00552 | -14.54481 | 5002 ft | 149 kts | 126° |
| 2026-05-09 01:13 | 63.99946 | -14.52567 | 5004 ft | 149 kts | 126° |
| 2026-05-09 01:13 | 63.99345 | -14.50639 | 5003 ft | 149 kts | 125° |
| 2026-05-09 01:13 | 63.98748 | -14.48702 | 5003 ft | 150 kts | 125° |
| 2026-05-09 01:13 | 63.98151 | -14.46760 | 5004 ft | 150 kts | 125° |
| 2026-05-09 01:14 | 63.97554 | -14.44821 | 5003 ft | 149 kts | 125° |
| 2026-05-09 01:14 | 63.96954 | -14.42887 | 5002 ft | 150 kts | 126° |
| 2026-05-09 01:14 | 63.96348 | -14.40959 | 5003 ft | 150 kts | 126° |
| 2026-05-09 01:14 | 63.95737 | -14.39043 | 5003 ft | 150 kts | 126° |
| 2026-05-09 01:15 | 63.95120 | -14.37133 | 5003 ft | 150 kts | 127° |
| 2026-05-09 01:15 | 63.94501 | -14.35228 | 5003 ft | 150 kts | 127° |
| 2026-05-09 01:15 | 63.93881 | -14.33325 | 5003 ft | 150 kts | 127° |
| 2026-05-09 01:15 | 63.93262 | -14.31420 | 5003 ft | 150 kts | 127° |
| 2026-05-09 01:16 | 63.92646 | -14.29510 | 5003 ft | 150 kts | 126° |
| 2026-05-09 01:16 | 63.92033 | -14.27597 | 5003 ft | 150 kts | 126° |
| 2026-05-09 01:16 | 63.91421 | -14.25678 | 5003 ft | 150 kts | 126° |
| 2026-05-09 01:17 | 63.90209 | -14.21876 | 5003 ft | 150 kts | 126° |
| 2026-05-09 01:17 | 63.89599 | -14.19963 | 5003 ft | 150 kts | 126° |
| 2026-05-09 01:17 | 63.88988 | -14.18053 | 5004 ft | 149 kts | 126° |
| 2026-05-09 01:17 | 63.88363 | -14.16136 | 5009 ft | 156 kts | 126° |
| 2026-05-09 01:18 | 63.87689 | -14.14173 | 5004 ft | 159 kts | 126° |
| 2026-05-09 01:18 | 63.87019 | -14.12185 | 5002 ft | 158 kts | 124° |
| 2026-05-09 01:18 | 63.86366 | -14.10178 | 5001 ft | 158 kts | 124° |
| 2026-05-09 01:18 | 63.85718 | -14.08147 | 5002 ft | 159 kts | 123° |
| 2026-05-09 01:19 | 63.85080 | -14.06109 | 5002 ft | 158 kts | 122° |
| 2026-05-09 01:19 | 63.84445 | -14.04068 | 5001 ft | 158 kts | 122° |
| 2026-05-09 01:19 | 63.83815 | -14.02033 | 5001 ft | 158 kts | 122° |
| 2026-05-09 01:19 | 63.83181 | -13.99998 | 5001 ft | 158 kts | 123° |
| 2026-05-09 01:20 | 63.82543 | -13.97973 | 4999 ft | 158 kts | 123° |
| 2026-05-09 01:20 | 63.81900 | -13.95966 | 4999 ft | 157 kts | 124° |
| 2026-05-09 01:20 | 63.81249 | -13.93976 | 4999 ft | 158 kts | 124° |
| 2026-05-09 01:20 | 63.80583 | -13.91986 | 5002 ft | 159 kts | 125° |
| 2026-05-09 01:21 | 63.79916 | -13.90008 | 5002 ft | 158 kts | 125° |
| 2026-05-09 01:21 | 63.79249 | -13.88030 | 5002 ft | 159 kts | 125° |
| 2026-05-09 01:21 | 63.78581 | -13.86036 | 5002 ft | 159 kts | 124° |
| 2026-05-09 01:21 | 63.77920 | -13.84031 | 5005 ft | 159 kts | 124° |
| 2026-05-09 01:22 | 63.77267 | -13.82022 | 5005 ft | 158 kts | 123° |
| 2026-05-09 01:22 | 63.76622 | -13.80012 | 5005 ft | 158 kts | 123° |
| 2026-05-09 01:22 | 63.75982 | -13.78022 | 5005 ft | 158 kts | 123° |
| 2026-05-09 01:22 | 63.75336 | -13.76021 | 5002 ft | 158 kts | 123° |
| 2026-05-09 01:23 | 63.74689 | -13.74012 | 5003 ft | 158 kts | 123° |
| 2026-05-09 01:23 | 63.74041 | -13.72010 | 5002 ft | 158 kts | 124° |
| 2026-05-09 01:23 | 63.73387 | -13.70008 | 5003 ft | 158 kts | 124° |
| 2026-05-09 01:23 | 63.72733 | -13.68015 | 5003 ft | 158 kts | 124° |
| 2026-05-09 01:24 | 63.72072 | -13.66024 | 5003 ft | 159 kts | 124° |
| 2026-05-09 01:24 | 63.71406 | -13.64034 | 5003 ft | 159 kts | 124° |
| 2026-05-09 01:24 | 63.70972 | -13.62692 | 4999 ft | 160 kts | 124° |
| 2026-05-09 01:24 | 63.70326 | -13.60658 | 5002 ft | 159 kts | 125° |
| 2026-05-09 01:25 | 63.69677 | -13.58637 | 5003 ft | 160 kts | 126° |
| 2026-05-09 01:25 | 63.69014 | -13.56629 | 5004 ft | 160 kts | 126° |
| 2026-05-09 01:25 | 63.68346 | -13.54641 | 5000 ft | 159 kts | 127° |
| 2026-05-09 01:25 | 63.67674 | -13.52667 | 5001 ft | 159 kts | 127° |
| 2026-05-09 01:26 | 63.66998 | -13.50697 | 5007 ft | 159 kts | 127° |
| 2026-05-09 01:26 | 63.66319 | -13.48714 | 5007 ft | 160 kts | 127° |
| 2026-05-09 01:26 | 63.65644 | -13.46727 | 5007 ft | 159 kts | 127° |
| 2026-05-09 01:26 | 63.64973 | -13.44740 | 5007 ft | 160 kts | 127° |
| 2026-05-09 01:27 | 63.64306 | -13.42736 | 5004 ft | 159 kts | 126° |
| 2026-05-09 01:27 | 63.63647 | -13.40725 | 5004 ft | 160 kts | 126° |
| 2026-05-09 01:27 | 63.62991 | -13.38707 | 5003 ft | 159 kts | 125° |
| 2026-05-09 01:27 | 63.62340 | -13.36694 | 4998 ft | 159 kts | 125° |
| 2026-05-09 01:28 | 63.61687 | -13.34679 | 5001 ft | 159 kts | 126° |
| 2026-05-09 01:28 | 63.61029 | -13.32674 | 5000 ft | 159 kts | 126° |
| 2026-05-09 01:28 | 63.60370 | -13.30692 | 5004 ft | 158 kts | 126° |
| 2026-05-09 01:28 | 63.59702 | -13.28716 | 5000 ft | 159 kts | 127° |
| 2026-05-09 01:29 | 63.59027 | -13.26738 | 5004 ft | 159 kts | 127° |
| 2026-05-09 01:29 | 63.58354 | -13.24764 | 5004 ft | 159 kts | 127° |
| 2026-05-09 01:29 | 63.57680 | -13.22790 | 5003 ft | 160 kts | 127° |
| 2026-05-09 01:29 | 63.57004 | -13.20804 | 5003 ft | 160 kts | 127° |
| 2026-05-09 01:30 | 63.56333 | -13.18818 | 5003 ft | 159 kts | 127° |
| 2026-05-09 01:30 | 63.55664 | -13.16834 | 5026 ft | 161 kts | 127° |
| 2026-05-09 01:30 | 63.54967 | -13.14837 | 5011 ft | 164 kts | 126° |
| 2026-05-09 01:30 | 63.54287 | -13.12832 | 5005 ft | 163 kts | 125° |
| 2026-05-09 01:31 | 63.53599 | -13.10786 | 5005 ft | 162 kts | 125° |
| 2026-05-09 01:31 | 63.52934 | -13.08789 | 5004 ft | 162 kts | 124° |
| 2026-05-09 01:31 | 63.52268 | -13.06760 | 5003 ft | 162 kts | 124° |
| 2026-05-09 01:31 | 63.51598 | -13.04720 | 5004 ft | 162 kts | 124° |
| 2026-05-09 01:32 | 63.50930 | -13.02691 | 5001 ft | 162 kts | 124° |
| 2026-05-09 01:32 | 63.50256 | -13.00664 | 5001 ft | 162 kts | 125° |
| 2026-05-09 01:32 | 63.49583 | -12.98623 | 5001 ft | 163 kts | 122° |
| 2026-05-09 01:32 | 63.48988 | -12.96463 | 5001 ft | 162 kts | 115° |
| 2026-05-09 01:33 | 63.48516 | -12.94196 | 5003 ft | 160 kts | 108° |
| 2026-05-09 01:33 | 63.48154 | -12.91829 | 5005 ft | 160 kts | 101° |
| 2026-05-09 01:33 | 63.47919 | -12.89412 | 5004 ft | 159 kts | 95° |
| 2026-05-09 01:33 | 63.47748 | -12.86968 | 4998 ft | 159 kts | 92° |
| 2026-05-09 01:34 | 63.47597 | -12.84535 | 4996 ft | 159 kts | 91° |
| 2026-05-09 01:34 | 63.47415 | -12.82107 | 4993 ft | 159 kts | 95° |
| 2026-05-09 01:34 | 63.47173 | -12.79688 | 4990 ft | 160 kts | 99° |
| 2026-05-09 01:34 | 63.46853 | -12.77311 | 4991 ft | 160 kts | 104° |
| 2026-05-09 01:35 | 63.46460 | -12.74987 | 4996 ft | 160 kts | 108° |
| 2026-05-09 01:35 | 63.46010 | -12.72702 | 4998 ft | 161 kts | 111° |
| 2026-05-09 01:35 | 63.45534 | -12.70435 | 5000 ft | 161 kts | 112° |
| 2026-05-09 01:35 | 63.45059 | -12.68158 | 5001 ft | 162 kts | 111° |
| 2026-05-09 01:36 | 63.44603 | -12.65860 | 5002 ft | 162 kts | 110° |
| 2026-05-09 01:36 | 63.44180 | -12.63532 | 5002 ft | 162 kts | 107° |
| 2026-05-09 01:36 | 63.43797 | -12.61170 | 4992 ft | 162 kts | 105° |
| 2026-05-09 01:36 | 63.43450 | -12.58783 | 4997 ft | 162 kts | 103° |
| 2026-05-09 01:37 | 63.43127 | -12.56380 | 4995 ft | 161 kts | 102° |
| 2026-05-09 01:37 | 63.42814 | -12.53978 | 4993 ft | 161 kts | 102° |
| 2026-05-09 01:37 | 63.42497 | -12.51618 | 4992 ft | 161 kts | 102° |
| 2026-05-09 01:37 | 63.42163 | -12.49238 | 4992 ft | 161 kts | 103° |
| 2026-05-09 01:38 | 63.41811 | -12.46865 | 4991 ft | 161 kts | 104° |
| 2026-05-09 01:38 | 63.41440 | -12.44505 | 4991 ft | 161 kts | 105° |
| 2026-05-09 01:38 | 63.41053 | -12.42159 | 4990 ft | 161 kts | 106° |
| 2026-05-09 01:38 | 63.40654 | -12.39821 | 4990 ft | 161 kts | 107° |
| 2026-05-09 01:39 | 63.40251 | -12.37481 | 4993 ft | 162 kts | 107° |
| 2026-05-09 01:39 | 63.39852 | -12.35133 | 4995 ft | 162 kts | 107° |
| 2026-05-09 01:39 | 63.39461 | -12.32771 | 4996 ft | 162 kts | 106° |
| 2026-05-09 01:39 | 63.39079 | -12.30407 | 4995 ft | 162 kts | 105° |
| 2026-05-09 01:40 | 63.38701 | -12.28084 | 4999 ft | 163 kts | 106° |
| 2026-05-09 01:40 | 63.38301 | -12.25716 | 4985 ft | 159 kts | 105° |
| 2026-05-09 01:40 | 63.37925 | -12.23368 | 4986 ft | 163 kts | 104° |
| 2026-05-09 01:40 | 63.37558 | -12.20992 | 4985 ft | 161 kts | 103° |
| 2026-05-09 01:41 | 63.37215 | -12.18598 | 4978 ft | 164 kts | 102° |
| 2026-05-09 01:41 | 63.36846 | -12.16204 | 4985 ft | 163 kts | 103° |
| 2026-05-09 01:41 | 63.36467 | -12.13852 | 4979 ft | 162 kts | 104° |
| 2026-05-09 01:41 | 63.36078 | -12.11500 | 4981 ft | 160 kts | 105° |
| 2026-05-09 01:42 | 63.35699 | -12.09145 | 4985 ft | 161 kts | 104° |
| 2026-05-09 01:42 | 63.35335 | -12.06820 | 4987 ft | 164 kts | 104° |
| 2026-05-09 01:42 | 63.34969 | -12.04448 | 4988 ft | 162 kts | 103° |
| 2026-05-09 01:42 | 63.34603 | -12.02057 | 4987 ft | 165 kts | 104° |
| 2026-05-09 01:43 | 63.34209 | -11.99677 | 4989 ft | 162 kts | 105° |
| 2026-05-09 01:43 | 63.33813 | -11.97341 | 4985 ft | 163 kts | 106° |
| 2026-05-09 01:43 | 63.33402 | -11.95012 | 4979 ft | 159 kts | 107° |
| 2026-05-09 01:43 | 63.33008 | -11.92712 | 4973 ft | 160 kts | 106° |
| 2026-05-09 01:44 | 63.32614 | -11.90378 | 4976 ft | 162 kts | 105° |
| 2026-05-09 01:44 | 63.32229 | -11.88042 | 4980 ft | 161 kts | 105° |
| 2026-05-09 01:44 | 63.31841 | -11.85694 | 4978 ft | 162 kts | 104° |
| 2026-05-09 01:44 | 63.31466 | -11.83314 | 4987 ft | 161 kts | 104° |
| 2026-05-09 01:45 | 63.31106 | -11.80964 | 4987 ft | 163 kts | 104° |
| 2026-05-09 01:45 | 63.30722 | -11.78620 | 4981 ft | 160 kts | 105° |
| 2026-05-09 01:45 | 63.30354 | -11.76303 | 4986 ft | 159 kts | 104° |
| 2026-05-09 01:45 | 63.29970 | -11.73957 | 4979 ft | 162 kts | 105° |
| 2026-05-09 01:46 | 63.29575 | -11.71624 | 4977 ft | 162 kts | 105° |
| 2026-05-09 01:46 | 63.29189 | -11.69249 | 4971 ft | 164 kts | 104° |
| 2026-05-09 01:46 | 63.28814 | -11.66884 | 4972 ft | 160 kts | 104° |
| 2026-05-09 01:46 | 63.28449 | -11.64560 | 4982 ft | 161 kts | 103° |
| 2026-05-09 01:47 | 63.28103 | -11.62257 | 4974 ft | 158 kts | 103° |
| 2026-05-09 01:47 | 63.27739 | -11.59955 | 4965 ft | 157 kts | 105° |
| 2026-05-09 01:47 | 63.27342 | -11.57649 | 4972 ft | 160 kts | 107° |
| 2026-05-09 01:47 | 63.26931 | -11.55355 | 4974 ft | 160 kts | 107° |
| 2026-05-09 01:48 | 63.26516 | -11.53032 | 4974 ft | 163 kts | 107° |
| 2026-05-09 01:48 | 63.26100 | -11.50697 | 4976 ft | 162 kts | 106° |
| 2026-05-09 01:48 | 63.25695 | -11.48378 | 4977 ft | 161 kts | 106° |
| 2026-05-09 01:48 | 63.25303 | -11.46051 | 4972 ft | 159 kts | 106° |
| 2026-05-09 01:49 | 63.24918 | -11.43732 | 5001 ft | 164 kts | 105° |
| 2026-05-09 01:49 | 63.24507 | -11.41326 | 4983 ft | 169 kts | 104° |
| 2026-05-09 01:49 | 63.24097 | -11.38907 | 4978 ft | 169 kts | 103° |
| 2026-05-09 01:49 | 63.23705 | -11.36455 | 4975 ft | 169 kts | 102° |
| 2026-05-09 01:50 | 63.23307 | -11.33997 | 4968 ft | 167 kts | 102° |
| 2026-05-09 01:50 | 63.22931 | -11.31561 | 4970 ft | 167 kts | 102° |
| 2026-05-09 01:50 | 63.22533 | -11.29163 | 4972 ft | 164 kts | 105° |
| 2026-05-09 01:50 | 63.22142 | -11.26792 | 4958 ft | 166 kts | 103° |
| 2026-05-09 01:51 | 63.21748 | -11.24379 | 4958 ft | 166 kts | 102° |
| 2026-05-09 01:51 | 63.21376 | -11.21970 | 4956 ft | 167 kts | 102° |
| 2026-05-09 01:51 | 63.20972 | -11.19549 | 4958 ft | 167 kts | 104° |
| 2026-05-09 01:51 | 63.20546 | -11.17176 | 4960 ft | 164 kts | 106° |
| 2026-05-09 01:52 | 63.20096 | -11.14830 | 4962 ft | 166 kts | 106° |
| 2026-05-09 01:52 | 63.19668 | -11.12482 | 4963 ft | 164 kts | 105° |
| 2026-05-09 01:52 | 63.19257 | -11.10145 | 4962 ft | 163 kts | 104° |
| 2026-05-09 01:52 | 63.18848 | -11.07763 | 4965 ft | 165 kts | 104° |
| 2026-05-09 01:53 | 63.18456 | -11.05413 | 4965 ft | 166 kts | 103° |
| 2026-05-09 01:53 | 63.18038 | -11.02991 | 4960 ft | 170 kts | 103° |
| 2026-05-09 01:53 | 63.17637 | -11.00568 | 4970 ft | 165 kts | 103° |
| 2026-05-09 01:53 | 63.17251 | -10.98153 | 4968 ft | 168 kts | 102° |
| 2026-05-09 01:54 | 63.16874 | -10.95762 | 4973 ft | 163 kts | 103° |
| 2026-05-09 01:54 | 63.16480 | -10.93388 | 4956 ft | 165 kts | 104° |
| 2026-05-09 01:54 | 63.16069 | -10.90986 | 4959 ft | 166 kts | 103° |
| 2026-05-09 01:54 | 63.15652 | -10.88600 | 4956 ft | 168 kts | 104° |
| 2026-05-09 01:55 | 63.15220 | -10.86196 | 4955 ft | 169 kts | 105° |
| 2026-05-09 01:55 | 63.14786 | -10.83804 | 4956 ft | 165 kts | 105° |
| 2026-05-09 01:55 | 63.14360 | -10.81415 | 4955 ft | 167 kts | 105° |
| 2026-05-09 01:55 | 63.13932 | -10.79049 | 4955 ft | 164 kts | 105° |
| 2026-05-09 01:56 | 63.13525 | -10.76685 | 4955 ft | 167 kts | 105° |
| 2026-05-09 01:56 | 63.13109 | -10.74275 | 4954 ft | 166 kts | 103° |
| 2026-05-09 01:56 | 63.12703 | -10.71862 | 4955 ft | 170 kts | 104° |
| 2026-05-09 01:56 | 63.12285 | -10.69425 | 4954 ft | 168 kts | 104° |
| 2026-05-09 01:57 | 63.11878 | -10.67014 | 4959 ft | 165 kts | 103° |
| 2026-05-09 01:57 | 63.11480 | -10.64598 | 4955 ft | 166 kts | 103° |
| 2026-05-09 01:57 | 63.11080 | -10.62206 | 4957 ft | 166 kts | 104° |
| 2026-05-09 01:57 | 63.10666 | -10.59832 | 4959 ft | 169 kts | 105° |
| 2026-05-09 01:58 | 63.10216 | -10.57421 | 4942 ft | 167 kts | 105° |
| 2026-05-09 01:58 | 63.09731 | -10.55045 | 4944 ft | 173 kts | 107° |
| 2026-05-09 01:58 | 63.09247 | -10.52603 | 4943 ft | 174 kts | 104° |
| 2026-05-09 01:58 | 63.08816 | -10.50178 | 4946 ft | 168 kts | 103° |
| 2026-05-09 01:59 | 63.08417 | -10.47766 | 4943 ft | 169 kts | 102° |
| 2026-05-09 01:59 | 63.08022 | -10.45337 | 4941 ft | 165 kts | 103° |
| 2026-05-09 01:59 | 63.07644 | -10.42931 | 4940 ft | 168 kts | 101° |
| 2026-05-09 01:59 | 63.07261 | -10.40540 | 4937 ft | 165 kts | 101° |
| 2026-05-09 02:00 | 63.06869 | -10.38124 | 4941 ft | 168 kts | 101° |
| 2026-05-09 02:00 | 63.06451 | -10.35691 | 4943 ft | 171 kts | 103° |
| 2026-05-09 02:00 | 63.06015 | -10.33316 | 4938 ft | 168 kts | 106° |
| 2026-05-09 02:00 | 63.05543 | -10.30937 | 4934 ft | 169 kts | 107° |
| 2026-05-09 02:01 | 63.05109 | -10.28576 | 4943 ft | 165 kts | 105° |
| 2026-05-09 02:01 | 63.04698 | -10.26191 | 4935 ft | 169 kts | 104° |
| 2026-05-09 02:01 | 63.04276 | -10.23778 | 4933 ft | 168 kts | 105° |
| 2026-05-09 02:01 | 63.03852 | -10.21355 | 4937 ft | 171 kts | 104° |
| 2026-05-09 02:02 | 63.03417 | -10.18922 | 4933 ft | 171 kts | 105° |
| 2026-05-09 02:02 | 63.02971 | -10.16528 | 4932 ft | 169 kts | 106° |
| 2026-05-09 02:02 | 63.02519 | -10.14128 | 4932 ft | 168 kts | 107° |
| 2026-05-09 02:02 | 63.02071 | -10.11753 | 4932 ft | 167 kts | 106° |
| 2026-05-09 02:03 | 63.01656 | -10.09360 | 4932 ft | 170 kts | 104° |
| 2026-05-09 02:03 | 63.01243 | -10.06929 | 4935 ft | 169 kts | 104° |
| 2026-05-09 02:03 | 63.00824 | -10.04499 | 4935 ft | 172 kts | 104° |
| 2026-05-09 02:03 | 63.00392 | -10.02066 | 4932 ft | 171 kts | 104° |
| 2026-05-09 02:04 | 62.99969 | -9.99646 | 4933 ft | 169 kts | 105° |
| 2026-05-09 02:04 | 62.99423 | -9.97328 | 4930 ft | 169 kts | 117° |
| 2026-05-09 02:04 | 62.98733 | -9.95247 | 4930 ft | 169 kts | 128° |
| 2026-05-09 02:04 | 62.97899 | -9.93362 | 4921 ft | 172 kts | 136° |
| 2026-05-09 02:05 | 62.97007 | -9.91618 | 4922 ft | 170 kts | 139° |
| 2026-05-09 02:05 | 62.96116 | -9.89833 | 4923 ft | 177 kts | 136° |
| 2026-05-09 02:05 | 62.95261 | -9.87914 | 4923 ft | 174 kts | 131° |
| 2026-05-09 02:05 | 62.94487 | -9.85897 | 4918 ft | 173 kts | 127° |
| 2026-05-09 02:06 | 62.93745 | -9.83769 | 4919 ft | 174 kts | 123° |
| 2026-05-09 02:06 | 62.93032 | -9.81597 | 4918 ft | 177 kts | 123° |
| 2026-05-09 02:06 | 62.92298 | -9.79423 | 4919 ft | 175 kts | 124° |
| 2026-05-09 02:07 | 62.90763 | -9.75320 | 4965 ft | 177 kts | 129° |
| 2026-05-09 02:07 | 62.89953 | -9.73319 | 4935 ft | 178 kts | 129° |
| 2026-05-09 02:07 | 62.89150 | -9.71315 | 4929 ft | 173 kts | 128° |
| 2026-05-09 02:07 | 62.88374 | -9.69306 | 4927 ft | 173 kts | 127° |
| 2026-05-09 02:08 | 62.87590 | -9.67247 | 4926 ft | 176 kts | 127° |
| 2026-05-09 02:08 | 62.86794 | -9.65155 | 4926 ft | 179 kts | 126° |
| 2026-05-09 02:08 | 62.86031 | -9.63054 | 4925 ft | 174 kts | 124° |
| 2026-05-09 02:08 | 62.85243 | -9.60984 | 4925 ft | 181 kts | 127° |
| 2026-05-09 02:09 | 62.84438 | -9.58879 | 4928 ft | 180 kts | 127° |
| 2026-05-09 02:09 | 62.83641 | -9.56787 | 4912 ft | 178 kts | 127° |
| 2026-05-09 02:09 | 62.82845 | -9.54711 | 4912 ft | 174 kts | 127° |
| 2026-05-09 02:09 | 62.82064 | -9.52672 | 4916 ft | 178 kts | 127° |
| 2026-05-09 02:10 | 62.81258 | -9.50607 | 4914 ft | 176 kts | 127° |
| 2026-05-09 02:10 | 62.80479 | -9.48568 | 4910 ft | 175 kts | 127° |
| 2026-05-09 02:10 | 62.79724 | -9.46528 | 4916 ft | 172 kts | 127° |
| 2026-05-09 02:10 | 62.78977 | -9.44543 | 4919 ft | 172 kts | 128° |
| 2026-05-09 02:11 | 62.78186 | -9.42513 | 4919 ft | 178 kts | 129° |
| 2026-05-09 02:11 | 62.77397 | -9.40462 | 4917 ft | 173 kts | 128° |
| 2026-05-09 02:11 | 62.76606 | -9.38459 | 4912 ft | 174 kts | 130° |
| 2026-05-09 02:11 | 62.75799 | -9.36446 | 4913 ft | 178 kts | 129° |
| 2026-05-09 02:12 | 62.74993 | -9.34381 | 4914 ft | 179 kts | 128° |
| 2026-05-09 02:12 | 62.74204 | -9.32326 | 4916 ft | 174 kts | 128° |
| 2026-05-09 02:12 | 62.73435 | -9.30303 | 4918 ft | 172 kts | 127° |
| 2026-05-09 02:12 | 62.72669 | -9.28276 | 4919 ft | 174 kts | 128° |
| 2026-05-09 02:13 | 62.71887 | -9.26254 | 4919 ft | 171 kts | 128° |
| 2026-05-09 02:13 | 62.71121 | -9.24290 | 4920 ft | 170 kts | 129° |
| 2026-05-09 02:13 | 62.70342 | -9.22301 | 4926 ft | 174 kts | 129° |
| 2026-05-09 02:13 | 62.69566 | -9.20312 | 4912 ft | 174 kts | 128° |
| 2026-05-09 02:14 | 62.68774 | -9.18276 | 4911 ft | 176 kts | 129° |
| 2026-05-09 02:14 | 62.68002 | -9.16271 | 4911 ft | 171 kts | 128° |
| 2026-05-09 02:14 | 62.67224 | -9.14241 | 4912 ft | 175 kts | 128° |
| 2026-05-09 02:14 | 62.66430 | -9.12205 | 4910 ft | 177 kts | 129° |
| 2026-05-09 02:15 | 62.65618 | -9.10161 | 4915 ft | 179 kts | 129° |
| 2026-05-09 02:15 | 62.64814 | -9.08149 | 4914 ft | 174 kts | 129° |
| 2026-05-09 02:15 | 62.64016 | -9.06184 | 4913 ft | 175 kts | 130° |
| 2026-05-09 02:15 | 62.63222 | -9.04193 | 4916 ft | 175 kts | 128° |
| 2026-05-09 02:16 | 62.62438 | -9.02118 | 4913 ft | 173 kts | 127° |
| 2026-05-09 02:16 | 62.61704 | -9.00125 | 4911 ft | 170 kts | 127° |
| 2026-05-09 02:16 | 62.60946 | -8.98129 | 4910 ft | 174 kts | 128° |
| 2026-05-09 02:16 | 62.60161 | -8.96129 | 4903 ft | 176 kts | 129° |
| 2026-05-09 02:17 | 62.59369 | -8.94171 | 4878 ft | 169 kts | 132° |
| 2026-05-09 02:17 | 62.58583 | -8.92262 | 4773 ft | 172 kts | 130° |
| 2026-05-09 02:17 | 62.57788 | -8.90270 | 4711 ft | 175 kts | 129° |
| 2026-05-09 02:17 | 62.57015 | -8.88285 | 4635 ft | 171 kts | 129° |
| 2026-05-09 02:18 | 62.56233 | -8.86285 | 4567 ft | 176 kts | 129° |
| 2026-05-09 02:18 | 62.55447 | -8.84271 | 4476 ft | 174 kts | 128° |
| 2026-05-09 02:18 | 62.54651 | -8.82275 | 4346 ft | 177 kts | 129° |
| 2026-05-09 02:18 | 62.53852 | -8.80269 | 4251 ft | 172 kts | 129° |
| 2026-05-09 02:19 | 62.53075 | -8.78265 | 4140 ft | 173 kts | 129° |
| 2026-05-09 02:19 | 62.52302 | -8.76295 | 4038 ft | 171 kts | 129° |
| 2026-05-09 02:19 | 62.51532 | -8.74338 | 3939 ft | 174 kts | 129° |
| 2026-05-09 02:19 | 62.50733 | -8.72328 | 3821 ft | 177 kts | 129° |
| 2026-05-09 02:20 | 62.49942 | -8.70337 | 3713 ft | 172 kts | 130° |
| 2026-05-09 02:20 | 62.49140 | -8.68380 | 3616 ft | 175 kts | 131° |
| 2026-05-09 02:20 | 62.48597 | -8.67057 | 3542 ft | 179 kts | 130° |
| 2026-05-09 02:20 | 62.47784 | -8.65022 | 3426 ft | 179 kts | 129° |
| 2026-05-09 02:21 | 62.46986 | -8.62996 | 3308 ft | 175 kts | 129° |
| 2026-05-09 02:21 | 62.46198 | -8.61001 | 3195 ft | 173 kts | 129° |
| 2026-05-09 02:21 | 62.45410 | -8.59007 | 3070 ft | 176 kts | 129° |
| 2026-05-09 02:21 | 62.44615 | -8.56991 | 2944 ft | 174 kts | 129° |
| 2026-05-09 02:22 | 62.43846 | -8.55035 | 2979 ft | 161 kts | 129° |
| 2026-05-09 02:22 | 62.43153 | -8.53300 | 3049 ft | 158 kts | 130° |
| 2026-05-09 02:22 | 62.42415 | -8.51470 | 2962 ft | 160 kts | 130° |
| 2026-05-09 02:22 | 62.41679 | -8.49650 | 2947 ft | 163 kts | 128° |
| 2026-05-09 02:23 | 62.41025 | -8.47673 | 2890 ft | 160 kts | 119° |
| 2026-05-09 02:23 | 62.40515 | -8.45542 | 2896 ft | 160 kts | 107° |
| 2026-05-09 02:23 | 62.40028 | -8.43361 | 2821 ft | 163 kts | 117° |
| 2026-05-09 02:23 | 62.39349 | -8.41478 | 2826 ft | 157 kts | 132° |
| 2026-05-09 02:24 | 62.38531 | -8.39976 | 2843 ft | 156 kts | 147° |
| 2026-05-09 02:24 | 62.37639 | -8.38740 | 2844 ft | 155 kts | 153° |
| 2026-05-09 02:24 | 62.36725 | -8.37470 | 2841 ft | 155 kts | 150° |
| 2026-05-09 02:24 | 62.35883 | -8.36048 | 2843 ft | 155 kts | 141° |
| 2026-05-09 02:25 | 62.35131 | -8.34426 | 2844 ft | 152 kts | 132° |
| 2026-05-09 02:25 | 62.34472 | -8.32656 | 2845 ft | 152 kts | 124° |
| 2026-05-09 02:25 | 62.33858 | -8.30771 | 2845 ft | 155 kts | 121° |
| 2026-05-09 02:25 | 62.33237 | -8.28836 | 2849 ft | 159 kts | 122° |
| 2026-05-09 02:26 | 62.32597 | -8.26930 | 2849 ft | 156 kts | 125° |
| 2026-05-09 02:26 | 62.31907 | -8.25067 | 2852 ft | 161 kts | 128° |
| 2026-05-09 02:26 | 62.31165 | -8.23258 | 2848 ft | 160 kts | 131° |
| 2026-05-09 02:26 | 62.30404 | -8.21519 | 2852 ft | 162 kts | 134° |
| 2026-05-09 02:27 | 62.29624 | -8.19778 | 2851 ft | 159 kts | 134° |
| 2026-05-09 02:27 | 62.28868 | -8.18055 | 2847 ft | 160 kts | 133° |
| 2026-05-09 02:27 | 62.28122 | -8.16272 | 2829 ft | 159 kts | 131° |
| 2026-05-09 02:27 | 62.27406 | -8.14500 | 2833 ft | 157 kts | 130° |
| 2026-05-09 02:28 | 62.26698 | -8.12729 | 2835 ft | 156 kts | 130° |
| 2026-05-09 02:28 | 62.25993 | -8.10952 | 2835 ft | 156 kts | 130° |
| 2026-05-09 02:28 | 62.25279 | -8.09158 | 2836 ft | 159 kts | 130° |
| 2026-05-09 02:28 | 62.24550 | -8.07349 | 2836 ft | 160 kts | 131° |
| 2026-05-09 02:29 | 62.23819 | -8.05562 | 2836 ft | 160 kts | 131° |
| 2026-05-09 02:29 | 62.23077 | -8.03775 | 2836 ft | 162 kts | 132° |
| 2026-05-09 02:29 | 62.22332 | -8.01981 | 2836 ft | 164 kts | 131° |
| 2026-05-09 02:29 | 62.21571 | -8.00132 | 2839 ft | 162 kts | 131° |
| 2026-05-09 02:30 | 62.20839 | -7.98343 | 2840 ft | 161 kts | 131° |
| 2026-05-09 02:30 | 62.20095 | -7.96549 | 2839 ft | 162 kts | 132° |
| 2026-05-09 02:30 | 62.19342 | -7.94727 | 2838 ft | 163 kts | 131° |
| 2026-05-09 02:30 | 62.18609 | -7.92917 | 2837 ft | 160 kts | 131° |
| 2026-05-09 02:31 | 62.17872 | -7.91097 | 2838 ft | 162 kts | 131° |
| 2026-05-09 02:31 | 62.17135 | -7.89298 | 2837 ft | 160 kts | 131° |
| 2026-05-09 02:31 | 62.16396 | -7.87505 | 2838 ft | 162 kts | 131° |
| 2026-05-09 02:31 | 62.15649 | -7.85700 | 2842 ft | 161 kts | 131° |
| 2026-05-09 02:32 | 62.14909 | -7.83916 | 2843 ft | 162 kts | 131° |
| 2026-05-09 02:32 | 62.14160 | -7.82125 | 2806 ft | 161 kts | 132° |
| 2026-05-09 02:32 | 62.13406 | -7.80322 | 2805 ft | 163 kts | 132° |
| 2026-05-09 02:32 | 62.12662 | -7.78495 | 2805 ft | 162 kts | 129° |
| 2026-05-09 02:33 | 62.11981 | -7.76617 | 2807 ft | 158 kts | 125° |
| 2026-05-09 02:33 | 62.11358 | -7.74668 | 2807 ft | 160 kts | 121° |
| 2026-05-09 02:33 | 62.10769 | -7.72676 | 2807 ft | 156 kts | 119° |
| 2026-05-09 02:33 | 62.10201 | -7.70716 | 2804 ft | 154 kts | 120° |
| 2026-05-09 02:34 | 62.09619 | -7.68781 | 2805 ft | 155 kts | 121° |
| 2026-05-09 02:34 | 62.09013 | -7.66865 | 2805 ft | 156 kts | 123° |
| 2026-05-09 02:34 | 62.08385 | -7.65018 | 2805 ft | 153 kts | 125° |
| 2026-05-09 02:34 | 62.07742 | -7.63182 | 2811 ft | 154 kts | 126° |
| 2026-05-09 02:35 | 62.07099 | -7.61360 | 2811 ft | 152 kts | 126° |
| 2026-05-09 02:35 | 62.06462 | -7.59556 | 2818 ft | 151 kts | 126° |
| 2026-05-09 02:35 | 62.05852 | -7.57771 | 2815 ft | 148 kts | 124° |
| 2026-05-09 02:35 | 62.05250 | -7.55978 | 2808 ft | 148 kts | 124° |
| 2026-05-09 02:36 | 62.04668 | -7.54229 | 2810 ft | 145 kts | 123° |
| 2026-05-09 02:36 | 62.04096 | -7.52479 | 2810 ft | 143 kts | 122° |
| 2026-05-09 02:36 | 62.03539 | -7.50731 | 2814 ft | 144 kts | 121° |
| 2026-05-09 02:36 | 62.02967 | -7.48993 | 2790 ft | 143 kts | 123° |
| 2026-05-09 02:37 | 62.02393 | -7.47290 | 2788 ft | 141 kts | 123° |
| 2026-05-09 02:37 | 62.01825 | -7.45571 | 2786 ft | 143 kts | 123° |
| 2026-05-09 02:37 | 62.01250 | -7.43849 | 2786 ft | 142 kts | 123° |
| 2026-05-09 02:37 | 62.00680 | -7.42163 | 2785 ft | 140 kts | 123° |
| 2026-05-09 02:38 | 62.00123 | -7.40516 | 2794 ft | 136 kts | 123° |
| 2026-05-09 02:38 | 61.99559 | -7.38880 | 2791 ft | 137 kts | 124° |
| 2026-05-09 02:38 | 61.99016 | -7.37271 | 2792 ft | 132 kts | 123° |
| 2026-05-09 02:38 | 61.98475 | -7.35661 | 2781 ft | 134 kts | 123° |
| 2026-05-09 02:39 | 61.97942 | -7.34083 | 2788 ft | 131 kts | 123° |
| 2026-05-09 02:39 | 61.97402 | -7.32493 | 2786 ft | 132 kts | 124° |
| 2026-05-09 02:39 | 61.96873 | -7.30947 | 2788 ft | 128 kts | 123° |
| 2026-05-09 02:39 | 61.96357 | -7.29402 | 2794 ft | 128 kts | 122° |
| 2026-05-09 02:40 | 61.95842 | -7.27855 | 2785 ft | 128 kts | 123° |
| 2026-05-09 02:40 | 61.95335 | -7.26345 | 2795 ft | 121 kts | 122° |
| 2026-05-09 02:40 | 61.94861 | -7.24915 | 2784 ft | 119 kts | 122° |
| 2026-05-09 02:40 | 61.94373 | -7.23426 | 2698 ft | 125 kts | 123° |
| 2026-05-09 02:41 | 61.93865 | -7.21987 | 2688 ft | 120 kts | 124° |
| 2026-05-09 02:41 | 61.93358 | -7.20572 | 2635 ft | 120 kts | 125° |
| 2026-05-09 02:41 | 61.92856 | -7.19134 | 2577 ft | 124 kts | 123° |
| 2026-05-09 02:41 | 61.92377 | -7.17583 | 2516 ft | 127 kts | 117° |
| 2026-05-09 02:42 | 61.92011 | -7.15886 | 2421 ft | 127 kts | 103° |
| 2026-05-09 02:42 | 61.91806 | -7.14074 | 2394 ft | 123 kts | 87° |
| 2026-05-09 02:42 | 61.91771 | -7.12265 | 2350 ft | 120 kts | 71° |
| 2026-05-09 02:42 | 61.91925 | -7.10609 | 2329 ft | 112 kts | 54° |
| 2026-05-09 02:43 | 61.92226 | -7.09188 | 2322 ft | 99 kts | 37° |
| 2026-05-09 02:43 | 61.92613 | -7.08113 | 2327 ft | 85 kts | 20° |
| 2026-05-09 02:43 | 61.93010 | -7.07351 | 2328 ft | 68 kts | 5° |
| 2026-05-09 02:43 | 61.93369 | -7.06870 | 2190 ft | 70 kts | 346° |
| 2026-05-09 02:44 | 61.93861 | -7.06817 | 2132 ft | 70 kts | 335° |
| 2026-05-09 02:44 | 61.94316 | -7.06998 | 2220 ft | 56 kts | 331° |
| 2026-05-09 02:44 | 61.94762 | -7.07091 | 2081 ft | 67 kts | 342° |
| 2026-05-09 02:44 | 61.95297 | -7.07107 | 1980 ft | 81 kts | 348° |
| 2026-05-09 02:45 | 61.95847 | -7.07144 | 1961 ft | 84 kts | 337° |
| 2026-05-09 02:45 | 61.96421 | -7.07423 | 1950 ft | 85 kts | 331° |
| 2026-05-09 02:45 | 61.96987 | -7.07740 | 1947 ft | 85 kts | 335° |
| 2026-05-09 02:45 | 61.97549 | -7.08019 | 2011 ft | 77 kts | 330° |
| 2026-05-09 02:46 | 61.98059 | -7.08497 | 1978 ft | 86 kts | 327° |
| 2026-05-09 02:46 | 61.98608 | -7.08900 | 1986 ft | 86 kts | 334° |
| 2026-05-09 02:46 | 61.99218 | -7.09278 | 1895 ft | 94 kts | 330° |
| 2026-05-09 02:46 | 61.99796 | -7.09813 | 1831 ft | 87 kts | 324° |
| 2026-05-09 02:47 | 62.00288 | -7.10444 | 1785 ft | 79 kts | 320° |
| 2026-05-09 02:47 | 62.00751 | -7.11080 | 1730 ft | 79 kts | 316° |
| 2026-05-09 02:47 | 62.01167 | -7.11770 | 1687 ft | 72 kts | 315° |
| 2026-05-09 02:47 | 62.01564 | -7.12479 | 1609 ft | 76 kts | 315° |
| 2026-05-09 02:48 | 62.01948 | -7.13242 | 1540 ft | 74 kts | 312° |
| 2026-05-09 02:48 | 62.02316 | -7.14037 | 1461 ft | 78 kts | 310° |
| 2026-05-09 02:48 | 62.02696 | -7.14871 | 1361 ft | 79 kts | 312° |
| 2026-05-09 02:48 | 62.03082 | -7.15698 | 1213 ft | 79 kts | 313° |
| 2026-05-09 02:49 | 62.03466 | -7.16472 | 1048 ft | 73 kts | 308° |
| 2026-05-09 02:49 | 62.03758 | -7.17290 | 1053 ft | 66 kts | 298° |
| 2026-05-09 02:49 | 62.03934 | -7.18206 | 1075 ft | 68 kts | 297° |
| 2026-05-09 02:49 | 62.04127 | -7.19145 | 1044 ft | 69 kts | 301° |
| 2026-05-09 02:50 | 62.04398 | -7.20025 | 1002 ft | 70 kts | 305° |
| 2026-05-09 02:50 | 62.04656 | -7.20807 | 875 ft | 63 kts | 296° |
| 2026-05-09 02:50 | 62.04838 | -7.21613 | 684 ft | 58 kts | 291° |
| 2026-05-09 02:50 | 62.05000 | -7.22401 | 595 ft | 56 kts | 297° |
| 2026-05-09 02:51 | 62.05157 | -7.23063 | 525 ft | 44 kts | 302° |
| 2026-05-09 02:51 | 62.05327 | -7.23625 | 421 ft | 48 kts | 295° |
| 2026-05-09 02:51 | 62.05496 | -7.24296 | 378 ft | 52 kts | 298° |
| 2026-05-09 02:51 | 62.05674 | -7.25003 | 350 ft | 52 kts | 295° |
| 2026-05-09 02:52 | 62.05831 | -7.25651 | 266 ft | 46 kts | 287° |
| 2026-05-09 02:52 | 62.05845 | -7.26143 | 270 ft | 36 kts | 285° |
| 2026-05-09 02:52 | 62.05987 | -7.26712 | 296 ft | 54 kts | 324° |
| 2026-05-09 02:52 | 62.06225 | -7.27211 | 282 ft | 45 kts | 301° |
| 2026-05-09 02:53 | 62.06324 | -7.27581 | 283 ft | 15 kts | 296° |
| 2026-05-09 02:53 | 62.06369 | -7.27773 | 286 ft | 16 kts | 296° |
| 2026-05-09 02:53 | 62.06418 | -7.27972 | 287 ft | 15 kts | 301° |
| 2026-05-09 02:53 | 62.06486 | -7.28124 | 287 ft | 15 kts | 351° |
| 2026-05-09 02:54 | 62.06550 | -7.28079 | 296 ft | 5 kts | 20° |
| 2026-05-09 02:54 | 62.06567 | -7.28024 | 295 ft | 4 kts | 148° |
| 2026-05-09 02:54 | 62.06562 | -7.27997 | 295 ft | 0 kts | 43° |